Buxton, Oregon
Current Conditions -  °F | °C
As of 6:53 PM on Wednesday 26 Nov 2014 (Local Time) from KHIO Reporting Station
Few Clouds Few Clouds  
Wind Chill: 53°   Ceiling: Unl
Heat Index: 53°   Visibility: 10mi
Dew Point: 51°   Wind: 0mph
Humidity: 93%   Direction: NA
Pressure: 30.01"   Gusts: NA
Location:  45.69°N, 123.19°W
Report Text: KHIO 270253Z 00000KT 10SM FEW110 12/11 A3001 RMK AO2 SLP161 T01170106 56019
Loading
Personal Weather Stations






























Interactive Weather Map New forecast layout! Learn more

10-Day Weather Forecast

Advertisements
Track Severe Weather on mobile